sensor_id;sensor_type;location;lat;lon;timestamp;temperature;humidity
17632;DHT22;8934;51.194;17.150;2023-03-14T00:00:15;8.70;99.90
17632;DHT22;8934;51.194;17.150;2023-03-14T00:03:03;8.70;99.90
17632;DHT22;8934;51.194;17.150;2023-03-14T00:05:52;8.70;99.90
17632;DHT22;8934;51.194;17.150;2023-03-14T00:08:40;8.70;99.90
17632;DHT22;8934;51.194;17.150;2023-03-14T00:11:28;8.60;99.90
17632;DHT22;8934;51.194;17.150;2023-03-14T00:14:17;8.50;99.90
17632;DHT22;8934;51.194;17.150;2023-03-14T00:17:05;8.40;99.90
17632;DHT22;8934;51.194;17.150;2023-03-14T00:19:53;8.30;99.90
17632;DHT22;8934;51.194;17.150;2023-03-14T00:22:42;8.20;99.90
17632;DHT22;8934;51.194;17.150;2023-03-14T00:25:29;8.20;99.90
17632;DHT22;8934;51.194;17.150;2023-03-14T00:28:17;8.10;99.90
17632;DHT22;8934;51.194;17.150;2023-03-14T00:31:08;8.10;99.90
17632;DHT22;8934;51.194;17.150;2023-03-14T00:33:56;8.00;99.90
17632;DHT22;8934;51.194;17.150;2023-03-14T00:36:44;8.00;99.90
17632;DHT22;8934;51.194;17.150;2023-03-14T00:39:34;8.00;99.90
17632;DHT22;8934;51.194;17.150;2023-03-14T00:42:21;7.90;99.90
17632;DHT22;8934;51.194;17.150;2023-03-14T00:45:10;7.90;99.90
17632;DHT22;8934;51.194;17.150;2023-03-14T00:47:58;7.90;99.90
17632;DHT22;8934;51.194;17.150;2023-03-14T00:50:46;7.90;99.90
17632;DHT22;8934;51.194;17.150;2023-03-14T00:53:36;8.00;99.90
17632;DHT22;8934;51.194;17.150;2023-03-14T00:56:26;8.10;99.90
17632;DHT22;8934;51.194;17.150;2023-03-14T00:59:15;8.20;99.90
17632;DHT22;8934;51.194;17.150;2023-03-14T01:02:02;8.20;99.90
17632;DHT22;8934;51.194;17.150;2023-03-14T01:04:50;8.30;99.90
17632;DHT22;8934;51.194;17.150;2023-03-14T01:07:38;8.50;99.90
17632;DHT22;8934;51.194;17.150;2023-03-14T01:10:26;8.60;99.90
17632;DHT22;8934;51.194;17.150;2023-03-14T01:13:15;8.60;99.90
17632;DHT22;8934;51.194;17.150;2023-03-14T01:16:05;8.60;99.90
17632;DHT22;8934;51.194;17.150;2023-03-14T01:18:55;8.60;99.90
17632;DHT22;8934;51.194;17.150;2023-03-14T01:21:43;8.60;99.90
17632;DHT22;8934;51.194;17.150;2023-03-14T01:24:31;8.70;99.90
17632;DHT22;8934;51.194;17.150;2023-03-14T01:27:19;8.80;99.90
17632;DHT22;8934;51.194;17.150;2023-03-14T01:30:10;8.80;99.90
17632;DHT22;8934;51.194;17.150;2023-03-14T01:32:58;8.80;99.90
17632;DHT22;8934;51.194;17.150;2023-03-14T01:35:45;8.80;99.90
17632;DHT22;8934;51.194;17.150;2023-03-14T01:38:34;8.80;99.90
17632;DHT22;8934;51.194;17.150;2023-03-14T01:41:24;8.70;99.90
17632;DHT22;8934;51.194;17.150;2023-03-14T01:44:15;8.70;99.90
17632;DHT22;8934;51.194;17.150;2023-03-14T01:47:06;8.60;99.90
17632;DHT22;8934;51.194;17.150;2023-03-14T01:49:57;8.60;99.90
17632;DHT22;8934;51.194;17.150;2023-03-14T01:52:49;8.50;99.90
17632;DHT22;8934;51.194;17.150;2023-03-14T01:55:39;8.50;99.90
17632;DHT22;8934;51.194;17.150;2023-03-14T01:58:28;8.40;99.90
17632;DHT22;8934;51.194;17.150;2023-03-14T02:01:21;8.40;99.90
17632;DHT22;8934;51.194;17.150;2023-03-14T02:04:11;8.30;99.90
17632;DHT22;8934;51.194;17.150;2023-03-14T02:07:05;8.30;99.90
17632;DHT22;8934;51.194;17.150;2023-03-14T02:10:01;8.20;99.90
17632;DHT22;8934;51.194;17.150;2023-03-14T02:12:55;8.20;99.90
17632;DHT22;8934;51.194;17.150;2023-03-14T02:15:54;8.10;99.90
17632;DHT22;8934;51.194;17.150;2023-03-14T02:18:57;8.10;99.90
17632;DHT22;8934;51.194;17.150;2023-03-14T02:22:10;8.00;99.90
17632;DHT22;8934;51.194;17.150;2023-03-14T02:25:25;8.00;99.90
17632;DHT22;8934;51.194;17.150;2023-03-14T02:28:17;7.90;99.90
17632;DHT22;8934;51.194;17.150;2023-03-14T02:31:06;7.90;99.90
17632;DHT22;8934;51.194;17.150;2023-03-14T02:33:56;7.90;99.90
17632;DHT22;8934;51.194;17.150;2023-03-14T02:36:44;7.90;99.90
17632;DHT22;8934;51.194;17.150;2023-03-14T02:39:36;7.90;99.90
17632;DHT22;8934;51.194;17.150;2023-03-14T02:42:26;7.90;99.90
17632;DHT22;8934;51.194;17.150;2023-03-14T02:45:35;7.90;99.90
17632;DHT22;8934;51.194;17.150;2023-03-14T02:48:26;8.00;99.90
17632;DHT22;8934;51.194;17.150;2023-03-14T02:51:15;8.00;99.90
17632;DHT22;8934;51.194;17.150;2023-03-14T02:54:05;8.00;99.90
17632;DHT22;8934;51.194;17.150;2023-03-14T02:56:53;8.00;99.90
17632;DHT22;8934;51.194;17.150;2023-03-14T02:59:41;8.00;99.90
17632;DHT22;8934;51.194;17.150;2023-03-14T03:02:35;8.10;99.90
17632;DHT22;8934;51.194;17.150;2023-03-14T03:05:23;8.00;99.90
17632;DHT22;8934;51.194;17.150;2023-03-14T03:08:10;8.00;99.90
17632;DHT22;8934;51.194;17.150;2023-03-14T03:10:59;8.10;99.90
17632;DHT22;8934;51.194;17.150;2023-03-14T03:13:48;8.20;99.90
17632;DHT22;8934;51.194;17.150;2023-03-14T03:16:36;8.20;99.90
17632;DHT22;8934;51.194;17.150;2023-03-14T03:19:25;8.30;99.90
17632;DHT22;8934;51.194;17.150;2023-03-14T03:22:13;8.40;99.90
17632;DHT22;8934;51.194;17.150;2023-03-14T03:25:01;8.50;99.90
17632;DHT22;8934;51.194;17.150;2023-03-14T03:27:49;8.70;99.90
17632;DHT22;8934;51.194;17.150;2023-03-14T03:30:38;9.00;99.90
17632;DHT22;8934;51.194;17.150;2023-03-14T03:33:26;9.20;99.90
17632;DHT22;8934;51.194;17.150;2023-03-14T03:36:15;9.50;99.90
17632;DHT22;8934;51.194;17.150;2023-03-14T03:39:03;9.70;99.90
17632;DHT22;8934;51.194;17.150;2023-03-14T03:41:50;9.80;99.90
17632;DHT22;8934;51.194;17.150;2023-03-14T03:44:38;10.00;99.90
17632;DHT22;8934;51.194;17.150;2023-03-14T03:47:30;10.00;99.90
17632;DHT22;8934;51.194;17.150;2023-03-14T03:50:18;10.20;99.90
17632;DHT22;8934;51.194;17.150;2023-03-14T03:53:07;10.20;99.90
17632;DHT22;8934;51.194;17.150;2023-03-14T03:55:56;10.30;99.90
17632;DHT22;8934;51.194;17.150;2023-03-14T03:58:44;10.30;99.90
17632;DHT22;8934;51.194;17.150;2023-03-14T04:01:31;10.30;99.90
17632;DHT22;8934;51.194;17.150;2023-03-14T04:04:19;10.30;99.90
17632;DHT22;8934;51.194;17.150;2023-03-14T04:07:06;10.30;99.90
17632;DHT22;8934;51.194;17.150;2023-03-14T04:09:57;10.30;99.90
17632;DHT22;8934;51.194;17.150;2023-03-14T04:12:58;10.20;99.90
17632;DHT22;8934;51.194;17.150;2023-03-14T04:15:48;10.20;99.90
17632;DHT22;8934;51.194;17.150;2023-03-14T04:18:44;10.20;99.90
17632;DHT22;8934;51.194;17.150;2023-03-14T04:21:32;10.10;99.90
17632;DHT22;8934;51.194;17.150;2023-03-14T04:24:20;10.10;99.90
17632;DHT22;8934;51.194;17.150;2023-03-14T04:27:10;10.10;99.90
17632;DHT22;8934;51.194;17.150;2023-03-14T04:29:57;10.10;99.90
17632;DHT22;8934;51.194;17.150;2023-03-14T04:33:03;10.10;99.90
17632;DHT22;8934;51.194;17.150;2023-03-14T04:35:54;10.10;99.90
17632;DHT22;8934;51.194;17.150;2023-03-14T04:38:43;10.10;99.90
17632;DHT22;8934;51.194;17.150;2023-03-14T04:41:35;10.10;99.90
17632;DHT22;8934;51.194;17.150;2023-03-14T04:44:25;10.20;99.90
17632;DHT22;8934;51.194;17.150;2023-03-14T04:47:13;10.20;99.90
17632;DHT22;8934;51.194;17.150;2023-03-14T04:50:03;10.20;99.90
17632;DHT22;8934;51.194;17.150;2023-03-14T04:52:50;10.20;99.90
17632;DHT22;8934;51.194;17.150;2023-03-14T04:55:39;10.30;99.90
17632;DHT22;8934;51.194;17.150;2023-03-14T04:58:26;10.20;99.90
17632;DHT22;8934;51.194;17.150;2023-03-14T05:01:17;10.20;99.90
17632;DHT22;8934;51.194;17.150;2023-03-14T05:04:17;10.20;99.90
17632;DHT22;8934;51.194;17.150;2023-03-14T05:07:31;10.10;99.90
17632;DHT22;8934;51.194;17.150;2023-03-14T05:10:52;10.20;99.90
17632;DHT22;8934;51.194;17.150;2023-03-14T05:14:08;10.20;99.90
17632;DHT22;8934;51.194;17.150;2023-03-14T05:17:16;10.30;99.90
17632;DHT22;8934;51.194;17.150;2023-03-14T05:20:27;10.40;99.90
17632;DHT22;8934;51.194;17.150;2023-03-14T05:23:38;10.40;99.90
17632;DHT22;8934;51.194;17.150;2023-03-14T05:26:52;10.40;99.90
17632;DHT22;8934;51.194;17.150;2023-03-14T05:30:26;10.40;99.90
17632;DHT22;8934;51.194;17.150;2023-03-14T05:33:20;10.30;99.90
17632;DHT22;8934;51.194;17.150;2023-03-14T05:36:38;10.20;99.90
17632;DHT22;8934;51.194;17.150;2023-03-14T05:39:50;10.10;99.90
17632;DHT22;8934;51.194;17.150;2023-03-14T05:43:15;10.00;99.90
17632;DHT22;8934;51.194;17.150;2023-03-14T05:46:13;9.90;99.90
17632;DHT22;8934;51.194;17.150;2023-03-14T05:49:12;9.80;99.90
17632;DHT22;8934;51.194;17.150;2023-03-14T05:52:18;9.80;99.90
17632;DHT22;8934;51.194;17.150;2023-03-14T05:55:15;9.70;99.90
17632;DHT22;8934;51.194;17.150;2023-03-14T05:58:21;9.70;99.90
17632;DHT22;8934;51.194;17.150;2023-03-14T06:01:38;9.60;99.90
17632;DHT22;8934;51.194;17.150;2023-03-14T06:04:33;9.60;99.90
17632;DHT22;8934;51.194;17.150;2023-03-14T06:07:22;9.60;99.90
17632;DHT22;8934;51.194;17.150;2023-03-14T06:10:10;9.50;99.90
17632;DHT22;8934;51.194;17.150;2023-03-14T06:12:58;9.50;99.90
17632;DHT22;8934;51.194;17.150;2023-03-14T06:15:46;9.50;99.90
17632;DHT22;8934;51.194;17.150;2023-03-14T06:18:34;9.50;99.90
17632;DHT22;8934;51.194;17.150;2023-03-14T06:21:26;9.50;99.90
17632;DHT22;8934;51.194;17.150;2023-03-14T06:24:14;9.50;99.90
17632;DHT22;8934;51.194;17.150;2023-03-14T06:27:05;9.50;99.90
17632;DHT22;8934;51.194;17.150;2023-03-14T06:29:53;9.60;99.90
17632;DHT22;8934;51.194;17.150;2023-03-14T06:32:42;9.70;99.90
17632;DHT22;8934;51.194;17.150;2023-03-14T06:35:32;9.80;99.90
17632;DHT22;8934;51.194;17.150;2023-03-14T06:38:22;9.90;99.90
17632;DHT22;8934;51.194;17.150;2023-03-14T06:41:13;10.10;99.90
17632;DHT22;8934;51.194;17.150;2023-03-14T06:44:03;10.20;99.90
17632;DHT22;8934;51.194;17.150;2023-03-14T06:46:51;10.40;99.90
17632;DHT22;8934;51.194;17.150;2023-03-14T06:49:39;10.50;99.90
17632;DHT22;8934;51.194;17.150;2023-03-14T06:52:27;10.60;99.90
17632;DHT22;8934;51.194;17.150;2023-03-14T06:55:16;10.60;99.90
17632;DHT22;8934;51.194;17.150;2023-03-14T06:58:08;10.70;99.90
17632;DHT22;8934;51.194;17.150;2023-03-14T07:01:00;10.80;99.90
17632;DHT22;8934;51.194;17.150;2023-03-14T07:03:54;10.90;99.90
17632;DHT22;8934;51.194;17.150;2023-03-14T07:06:42;11.00;99.90
17632;DHT22;8934;51.194;17.150;2023-03-14T07:09:30;11.10;99.90
17632;DHT22;8934;51.194;17.150;2023-03-14T07:12:20;11.20;99.90
17632;DHT22;8934;51.194;17.150;2023-03-14T07:15:09;11.20;99.90
17632;DHT22;8934;51.194;17.150;2023-03-14T07:18:06;11.30;99.90
17632;DHT22;8934;51.194;17.150;2023-03-14T07:20:54;11.30;99.90
17632;DHT22;8934;51.194;17.150;2023-03-14T07:23:42;11.30;99.90
17632;DHT22;8934;51.194;17.150;2023-03-14T07:26:32;11.30;99.90
17632;DHT22;8934;51.194;17.150;2023-03-14T07:29:21;11.30;99.90
17632;DHT22;8934;51.194;17.150;2023-03-14T07:32:09;11.30;99.90
17632;DHT22;8934;51.194;17.150;2023-03-14T07:35:00;11.30;99.90
17632;DHT22;8934;51.194;17.150;2023-03-14T07:37:49;11.20;99.90
17632;DHT22;8934;51.194;17.150;2023-03-14T07:40:42;11.20;99.90
17632;DHT22;8934;51.194;17.150;2023-03-14T07:43:30;11.10;99.90
17632;DHT22;8934;51.194;17.150;2023-03-14T07:46:20;11.10;99.90
17632;DHT22;8934;51.194;17.150;2023-03-14T07:49:08;11.10;99.90
17632;DHT22;8934;51.194;17.150;2023-03-14T07:51:56;11.10;99.90
17632;DHT22;8934;51.194;17.150;2023-03-14T07:54:44;11.00;99.90
17632;DHT22;8934;51.194;17.150;2023-03-14T07:57:31;11.00;99.90
17632;DHT22;8934;51.194;17.150;2023-03-14T08:00:20;11.00;99.90
17632;DHT22;8934;51.194;17.150;2023-03-14T08:03:09;10.90;99.90
17632;DHT22;8934;51.194;17.150;2023-03-14T08:05:57;10.90;99.90
17632;DHT22;8934;51.194;17.150;2023-03-14T08:08:44;10.80;99.90
17632;DHT22;8934;51.194;17.150;2023-03-14T08:11:32;10.80;99.90
17632;DHT22;8934;51.194;17.150;2023-03-14T08:14:20;10.70;99.90
17632;DHT22;8934;51.194;17.150;2023-03-14T08:17:09;10.70;99.90
17632;DHT22;8934;51.194;17.150;2023-03-14T08:19:58;10.70;99.90
17632;DHT22;8934;51.194;17.150;2023-03-14T08:22:46;10.60;99.90
17632;DHT22;8934;51.194;17.150;2023-03-14T08:25:33;10.60;99.90
17632;DHT22;8934;51.194;17.150;2023-03-14T08:28:21;10.60;99.90
17632;DHT22;8934;51.194;17.150;2023-03-14T08:31:09;10.60;99.90
17632;DHT22;8934;51.194;17.150;2023-03-14T08:33:58;10.50;99.90
17632;DHT22;8934;51.194;17.150;2023-03-14T08:36:47;10.60;99.90
17632;DHT22;8934;51.194;17.150;2023-03-14T08:39:35;10.60;99.90
17632;DHT22;8934;51.194;17.150;2023-03-14T08:42:23;10.50;99.90
17632;DHT22;8934;51.194;17.150;2023-03-14T08:45:11;10.50;99.90
17632;DHT22;8934;51.194;17.150;2023-03-14T08:47:59;10.40;99.90
17632;DHT22;8934;51.194;17.150;2023-03-14T08:50:47;10.40;99.90
17632;DHT22;8934;51.194;17.150;2023-03-14T08:53:37;10.40;99.90
17632;DHT22;8934;51.194;17.150;2023-03-14T08:56:24;10.30;99.90
17632;DHT22;8934;51.194;17.150;2023-03-14T08:59:12;10.30;99.90
17632;DHT22;8934;51.194;17.150;2023-03-14T09:01:59;10.30;99.90
17632;DHT22;8934;51.194;17.150;2023-03-14T09:04:50;10.30;99.90
17632;DHT22;8934;51.194;17.150;2023-03-14T09:07:38;10.40;99.90
17632;DHT22;8934;51.194;17.150;2023-03-14T09:10:27;10.50;99.90
17632;DHT22;8934;51.194;17.150;2023-03-14T09:13:14;10.60;99.90
17632;DHT22;8934;51.194;17.150;2023-03-14T09:16:02;10.70;99.90
17632;DHT22;8934;51.194;17.150;2023-03-14T09:18:51;10.80;99.90
17632;DHT22;8934;51.194;17.150;2023-03-14T09:21:40;10.80;99.90
17632;DHT22;8934;51.194;17.150;2023-03-14T09:24:28;10.90;99.90
17632;DHT22;8934;51.194;17.150;2023-03-14T09:27:17;10.90;99.90
17632;DHT22;8934;51.194;17.150;2023-03-14T09:30:05;10.80;99.90
17632;DHT22;8934;51.194;17.150;2023-03-14T09:32:53;10.80;99.90
17632;DHT22;8934;51.194;17.150;2023-03-14T09:35:40;10.80;99.90
17632;DHT22;8934;51.194;17.150;2023-03-14T09:38:28;10.90;99.90
17632;DHT22;8934;51.194;17.150;2023-03-14T09:41:18;11.00;99.90
17632;DHT22;8934;51.194;17.150;2023-03-14T09:44:13;11.10;99.90
17632;DHT22;8934;51.194;17.150;2023-03-14T09:47:04;11.10;99.90
17632;DHT22;8934;51.194;17.150;2023-03-14T09:49:53;11.10;99.90
17632;DHT22;8934;51.194;17.150;2023-03-14T09:52:44;11.00;99.90
17632;DHT22;8934;51.194;17.150;2023-03-14T09:55:33;11.10;99.90
17632;DHT22;8934;51.194;17.150;2023-03-14T09:58:23;11.10;99.90
17632;DHT22;8934;51.194;17.150;2023-03-14T10:01:16;11.10;99.90
17632;DHT22;8934;51.194;17.150;2023-03-14T10:04:10;11.10;99.90
17632;DHT22;8934;51.194;17.150;2023-03-14T10:06:58;11.10;99.90
17632;DHT22;8934;51.194;17.150;2023-03-14T10:09:51;11.10;99.90
17632;DHT22;8934;51.194;17.150;2023-03-14T10:12:40;11.20;99.90
17632;DHT22;8934;51.194;17.150;2023-03-14T10:15:31;11.20;99.90
17632;DHT22;8934;51.194;17.150;2023-03-14T10:18:21;11.20;99.90
17632;DHT22;8934;51.194;17.150;2023-03-14T10:21:21;11.20;99.90
17632;DHT22;8934;51.194;17.150;2023-03-14T10:24:20;11.30;99.90
17632;DHT22;8934;51.194;17.150;2023-03-14T10:27:19;11.40;99.90
17632;DHT22;8934;51.194;17.150;2023-03-14T10:30:27;11.50;99.90
17632;DHT22;8934;51.194;17.150;2023-03-14T10:33:22;11.60;99.90
17632;DHT22;8934;51.194;17.150;2023-03-14T10:36:21;11.70;99.90
17632;DHT22;8934;51.194;17.150;2023-03-14T10:39:28;11.90;99.90
17632;DHT22;8934;51.194;17.150;2023-03-14T10:42:19;12.20;99.90
17632;DHT22;8934;51.194;17.150;2023-03-14T10:45:31;12.50;99.90
17632;DHT22;8934;51.194;17.150;2023-03-14T10:48:23;12.70;99.90
17632;DHT22;8934;51.194;17.150;2023-03-14T10:51:19;12.80;99.90
17632;DHT22;8934;51.194;17.150;2023-03-14T10:54:14;12.90;99.90
17632;DHT22;8934;51.194;17.150;2023-03-14T10:57:04;13.00;99.90
17632;DHT22;8934;51.194;17.150;2023-03-14T10:59:53;13.20;99.90
17632;DHT22;8934;51.194;17.150;2023-03-14T11:03:00;13.30;99.90
17632;DHT22;8934;51.194;17.150;2023-03-14T11:05:57;13.30;99.90
17632;DHT22;8934;51.194;17.150;2023-03-14T11:08:51;13.40;99.90
17632;DHT22;8934;51.194;17.150;2023-03-14T11:11:45;13.60;99.90
17632;DHT22;8934;51.194;17.150;2023-03-14T11:14:38;13.80;99.90
17632;DHT22;8934;51.194;17.150;2023-03-14T11:17:30;14.10;99.90
17632;DHT22;8934;51.194;17.150;2023-03-14T11:20:32;14.40;99.90
17632;DHT22;8934;51.194;17.150;2023-03-14T11:23:27;14.70;99.90
17632;DHT22;8934;51.194;17.150;2023-03-14T11:26:25;14.70;99.90
17632;DHT22;8934;51.194;17.150;2023-03-14T11:29:20;14.80;99.90
17632;DHT22;8934;51.194;17.150;2023-03-14T11:32:13;14.80;99.90
17632;DHT22;8934;51.194;17.150;2023-03-14T11:35:07;14.80;99.90
17632;DHT22;8934;51.194;17.150;2023-03-14T11:38:09;14.90;99.90
17632;DHT22;8934;51.194;17.150;2023-03-14T11:40:59;14.90;99.90
17632;DHT22;8934;51.194;17.150;2023-03-14T11:43:48;15.00;99.90
17632;DHT22;8934;51.194;17.150;2023-03-14T11:46:38;15.00;99.90
17632;DHT22;8934;51.194;17.150;2023-03-14T11:49:32;15.00;99.90
17632;DHT22;8934;51.194;17.150;2023-03-14T11:52:29;15.00;99.90
17632;DHT22;8934;51.194;17.150;2023-03-14T11:55:22;15.00;99.90
17632;DHT22;8934;51.194;17.150;2023-03-14T11:58:17;14.90;99.90
17632;DHT22;8934;51.194;17.150;2023-03-14T12:01:09;14.90;99.90
17632;DHT22;8934;51.194;17.150;2023-03-14T12:04:05;14.70;99.90
17632;DHT22;8934;51.194;17.150;2023-03-14T12:06:56;14.70;99.90
17632;DHT22;8934;51.194;17.150;2023-03-14T12:09:49;14.70;99.90
17632;DHT22;8934;51.194;17.150;2023-03-14T12:12:38;14.80;99.90
17632;DHT22;8934;51.194;17.150;2023-03-14T12:15:27;14.90;99.90
17632;DHT22;8934;51.194;17.150;2023-03-14T12:18:21;14.90;99.90
17632;DHT22;8934;51.194;17.150;2023-03-14T12:21:13;14.90;99.90
17632;DHT22;8934;51.194;17.150;2023-03-14T12:24:01;14.80;99.90
17632;DHT22;8934;51.194;17.150;2023-03-14T12:26:53;14.70;99.90
17632;DHT22;8934;51.194;17.150;2023-03-14T12:29:59;14.50;99.90
17632;DHT22;8934;51.194;17.150;2023-03-14T12:33:18;14.50;99.90
17632;DHT22;8934;51.194;17.150;2023-03-14T12:36:33;14.40;99.90
17632;DHT22;8934;51.194;17.150;2023-03-14T12:39:47;14.40;99.90
17632;DHT22;8934;51.194;17.150;2023-03-14T12:42:45;14.40;99.90
17632;DHT22;8934;51.194;17.150;2023-03-14T12:45:34;14.50;99.90
17632;DHT22;8934;51.194;17.150;2023-03-14T12:48:25;14.40;99.90
17632;DHT22;8934;51.194;17.150;2023-03-14T12:51:14;14.40;99.90
17632;DHT22;8934;51.194;17.150;2023-03-14T12:54:32;14.40;99.90
17632;DHT22;8934;51.194;17.150;2023-03-14T12:57:28;14.40;99.90
17632;DHT22;8934;51.194;17.150;2023-03-14T13:00:21;14.30;99.90
17632;DHT22;8934;51.194;17.150;2023-03-14T13:03:19;14.20;99.90
17632;DHT22;8934;51.194;17.150;2023-03-14T13:06:10;14.20;99.90
17632;DHT22;8934;51.194;17.150;2023-03-14T13:09:48;14.10;99.90
17632;DHT22;8934;51.194;17.150;2023-03-14T13:12:47;14.10;99.90
17632;DHT22;8934;51.194;17.150;2023-03-14T13:15:39;14.00;99.90
17632;DHT22;8934;51.194;17.150;2023-03-14T13:18:30;14.00;99.90
17632;DHT22;8934;51.194;17.150;2023-03-14T13:21:22;13.90;99.90
17632;DHT22;8934;51.194;17.150;2023-03-14T13:24:21;13.90;99.90
17632;DHT22;8934;51.194;17.150;2023-03-14T13:27:17;13.80;99.90
17632;DHT22;8934;51.194;17.150;2023-03-14T13:30:20;13.60;99.90
17632;DHT22;8934;51.194;17.150;2023-03-14T13:33:12;13.50;99.90
17632;DHT22;8934;51.194;17.150;2023-03-14T13:36:02;13.40;99.90
17632;DHT22;8934;51.194;17.150;2023-03-14T13:38:56;13.40;99.90
17632;DHT22;8934;51.194;17.150;2023-03-14T13:41:44;13.40;99.90
17632;DHT22;8934;51.194;17.150;2023-03-14T13:44:36;13.40;99.90
17632;DHT22;8934;51.194;17.150;2023-03-14T13:47:26;13.40;99.90
17632;DHT22;8934;51.194;17.150;2023-03-14T13:50:16;13.50;99.90
17632;DHT22;8934;51.194;17.150;2023-03-14T13:53:05;13.50;99.90
17632;DHT22;8934;51.194;17.150;2023-03-14T13:55:53;13.50;99.90
17632;DHT22;8934;51.194;17.150;2023-03-14T13:58:41;13.50;99.90
17632;DHT22;8934;51.194;17.150;2023-03-14T14:01:31;13.50;99.90
17632;DHT22;8934;51.194;17.150;2023-03-14T14:04:21;13.50;99.90
17632;DHT22;8934;51.194;17.150;2023-03-14T14:07:13;13.40;99.90
17632;DHT22;8934;51.194;17.150;2023-03-14T14:10:05;13.30;99.90
17632;DHT22;8934;51.194;17.150;2023-03-14T14:12:56;13.30;99.90
17632;DHT22;8934;51.194;17.150;2023-03-14T14:15:48;13.30;99.90
17632;DHT22;8934;51.194;17.150;2023-03-14T14:18:39;13.30;99.90
17632;DHT22;8934;51.194;17.150;2023-03-14T14:21:27;13.20;99.90
17632;DHT22;8934;51.194;17.150;2023-03-14T14:24:15;13.20;99.90
17632;DHT22;8934;51.194;17.150;2023-03-14T14:27:11;13.10;99.90
17632;DHT22;8934;51.194;17.150;2023-03-14T14:30:00;13.10;99.90
17632;DHT22;8934;51.194;17.150;2023-03-14T14:32:49;13.10;99.90
17632;DHT22;8934;51.194;17.150;2023-03-14T14:35:40;13.20;99.90
17632;DHT22;8934;51.194;17.150;2023-03-14T14:38:28;13.30;99.90
17632;DHT22;8934;51.194;17.150;2023-03-14T14:41:16;13.30;99.90
17632;DHT22;8934;51.194;17.150;2023-03-14T14:44:07;13.30;99.90
17632;DHT22;8934;51.194;17.150;2023-03-14T14:46:55;13.20;99.90
17632;DHT22;8934;51.194;17.150;2023-03-14T14:49:47;13.20;99.90
17632;DHT22;8934;51.194;17.150;2023-03-14T14:52:44;13.10;99.90
17632;DHT22;8934;51.194;17.150;2023-03-14T14:55:38;13.00;99.90
17632;DHT22;8934;51.194;17.150;2023-03-14T14:58:28;12.90;99.90
17632;DHT22;8934;51.194;17.150;2023-03-14T15:01:18;12.80;99.90
17632;DHT22;8934;51.194;17.150;2023-03-14T15:04:10;12.80;99.90
17632;DHT22;8934;51.194;17.150;2023-03-14T15:07:00;12.80;99.90
17632;DHT22;8934;51.194;17.150;2023-03-14T15:09:48;12.80;99.90
17632;DHT22;8934;51.194;17.150;2023-03-14T15:12:36;12.90;99.90
17632;DHT22;8934;51.194;17.150;2023-03-14T15:15:24;12.90;99.90
17632;DHT22;8934;51.194;17.150;2023-03-14T15:18:14;13.00;99.90
17632;DHT22;8934;51.194;17.150;2023-03-14T15:21:02;13.00;99.90
17632;DHT22;8934;51.194;17.150;2023-03-14T15:23:50;13.10;99.90
17632;DHT22;8934;51.194;17.150;2023-03-14T15:26:39;13.10;99.90
17632;DHT22;8934;51.194;17.150;2023-03-14T15:29:27;13.20;99.90
17632;DHT22;8934;51.194;17.150;2023-03-14T15:32:16;13.30;99.90
17632;DHT22;8934;51.194;17.150;2023-03-14T15:35:05;13.30;99.90
17632;DHT22;8934;51.194;17.150;2023-03-14T15:37:53;13.40;99.90
17632;DHT22;8934;51.194;17.150;2023-03-14T15:40:42;13.40;99.90
17632;DHT22;8934;51.194;17.150;2023-03-14T15:43:31;13.30;99.90
17632;DHT22;8934;51.194;17.150;2023-03-14T15:46:19;13.30;99.90
17632;DHT22;8934;51.194;17.150;2023-03-14T15:49:08;13.20;99.90
17632;DHT22;8934;51.194;17.150;2023-03-14T15:51:56;13.20;99.90
17632;DHT22;8934;51.194;17.150;2023-03-14T15:54:43;13.10;99.90
17632;DHT22;8934;51.194;17.150;2023-03-14T15:57:31;13.00;99.90
17632;DHT22;8934;51.194;17.150;2023-03-14T16:00:21;12.90;99.90
17632;DHT22;8934;51.194;17.150;2023-03-14T16:03:10;12.90;99.90
17632;DHT22;8934;51.194;17.150;2023-03-14T16:05:58;12.80;99.90
17632;DHT22;8934;51.194;17.150;2023-03-14T16:08:46;12.70;99.90
17632;DHT22;8934;51.194;17.150;2023-03-14T16:11:34;12.70;99.90
17632;DHT22;8934;51.194;17.150;2023-03-14T16:14:21;12.70;99.90
17632;DHT22;8934;51.194;17.150;2023-03-14T16:17:11;12.70;99.90
17632;DHT22;8934;51.194;17.150;2023-03-14T16:19:58;12.70;99.90
17632;DHT22;8934;51.194;17.150;2023-03-14T16:22:47;12.70;99.90
17632;DHT22;8934;51.194;17.150;2023-03-14T16:25:35;12.60;99.90
17632;DHT22;8934;51.194;17.150;2023-03-14T16:28:23;12.50;99.90
17632;DHT22;8934;51.194;17.150;2023-03-14T16:31:13;12.40;99.90
17632;DHT22;8934;51.194;17.150;2023-03-14T16:34:03;12.30;99.90
17632;DHT22;8934;51.194;17.150;2023-03-14T16:36:51;12.40;99.90
17632;DHT22;8934;51.194;17.150;2023-03-14T16:39:39;12.40;99.90
17632;DHT22;8934;51.194;17.150;2023-03-14T16:42:46;12.40;99.90
17632;DHT22;8934;51.194;17.150;2023-03-14T16:45:56;12.50;99.90
17632;DHT22;8934;51.194;17.150;2023-03-14T16:48:45;12.50;99.90
17632;DHT22;8934;51.194;17.150;2023-03-14T16:51:34;12.50;99.90
17632;DHT22;8934;51.194;17.150;2023-03-14T16:54:21;12.50;99.90
17632;DHT22;8934;51.194;17.150;2023-03-14T16:57:09;12.50;99.90
17632;DHT22;8934;51.194;17.150;2023-03-14T16:59:56;12.50;99.90
17632;DHT22;8934;51.194;17.150;2023-03-14T17:02:44;12.40;99.90
17632;DHT22;8934;51.194;17.150;2023-03-14T17:05:32;12.40;99.90
17632;DHT22;8934;51.194;17.150;2023-03-14T17:08:22;12.50;99.90
17632;DHT22;8934;51.194;17.150;2023-03-14T17:11:10;12.40;99.90
17632;DHT22;8934;51.194;17.150;2023-03-14T17:13:58;12.40;99.90
17632;DHT22;8934;51.194;17.150;2023-03-14T17:16:45;12.30;99.90
17632;DHT22;8934;51.194;17.150;2023-03-14T17:19:33;12.30;99.90
17632;DHT22;8934;51.194;17.150;2023-03-14T17:22:21;12.20;99.90
17632;DHT22;8934;51.194;17.150;2023-03-14T17:25:15;12.10;99.90
17632;DHT22;8934;51.194;17.150;2023-03-14T17:28:04;11.90;99.90
17632;DHT22;8934;51.194;17.150;2023-03-14T17:31:01;11.80;99.90
17632;DHT22;8934;51.194;17.150;2023-03-14T17:33:49;11.70;99.90
17632;DHT22;8934;51.194;17.150;2023-03-14T17:36:38;11.50;99.90
17632;DHT22;8934;51.194;17.150;2023-03-14T17:39:25;11.50;99.90
17632;DHT22;8934;51.194;17.150;2023-03-14T17:42:14;11.40;99.90
17632;DHT22;8934;51.194;17.150;2023-03-14T17:45:02;11.40;99.90
17632;DHT22;8934;51.194;17.150;2023-03-14T17:47:50;11.30;99.90
17632;DHT22;8934;51.194;17.150;2023-03-14T17:50:39;11.30;99.90
17632;DHT22;8934;51.194;17.150;2023-03-14T17:53:26;11.30;99.90
17632;DHT22;8934;51.194;17.150;2023-03-14T17:56:14;11.30;99.90
17632;DHT22;8934;51.194;17.150;2023-03-14T17:59:03;11.20;99.90
17632;DHT22;8934;51.194;17.150;2023-03-14T18:01:51;11.20;99.90
17632;DHT22;8934;51.194;17.150;2023-03-14T18:04:39;11.10;99.90
17632;DHT22;8934;51.194;17.150;2023-03-14T18:07:26;11.10;99.90
17632;DHT22;8934;51.194;17.150;2023-03-14T18:10:14;11.10;99.90